KICL/ICL METAR and TAF weather

Enter ICAO airport designator
Station Type Date Time Source
KICL METAR 2024/06/14 02:35 UTC NOAA

KICL 140235Z AUTO 03005KT 10SM BKN046 BKN055 26/22 A2992 RMK AO2


Station Type Date Time Source
KICL Decoded METAR 2024/06/14 02:35 UTC NOAA

Clarinda, IA, United States (KICL) 40-43N 095-02W
Jun 13, 2024 - 10:35 PM EDT / 2024.06.14 0235 UTC
Wind: from the NNE (030 degrees) at 6 MPH (5 KT):0
Visibility: 10 mile(s):0
Sky conditions: mostly cloudy
Temperature: 78 F (26 C)
Dew Point: 71 F (22 C)
Relative Humidity: 78%
Pressure (altimeter): 29.92 in. Hg (1013 hPa)
ob: KICL 140235Z AUTO 03005KT 10SM BKN046 BKN055 26/22 A2992 RMK AO2
cycle: 2

Station Type Date Time Source
KICL TAF UTC NOAA

Error!

Example: see airport list